Burmester, Utah
Current Conditions -  °F | °C
As of 3:53 PM on Friday 28 Nov 2014 (Local Time) from KSLC Reporting Station
Broken Clouds Broken Clouds  
Wind Chill: 64°   Ceiling: 20000
Heat Index: 64°   Visibility: 10mi
Dew Point: 14°   Wind: 17mph
Humidity: 14%   Direction: 180°S
Pressure: 29.83"   Gusts: 28mph
Location:  40.666°N, 112.527°W
Report Text: KSLC 282253Z 18015G24KT 10SM FEW150 BKN200 BKN240 18/M10 A2983 RMK AO2 PK WND 18028/2223 SLP075 T01781100
Loading
Personal Weather Stations






























Interactive Weather Map New forecast layout! Learn more

10-Day Weather Forecast

Advertisements
Track Severe Weather on mobile